Aérodrome :
LOGIN :

S'inscrire | Disclaimer

   EN    FR    IT 

 










Légende :    VFR   VFR Marginal   IFR   IFR Intensif   IFR Très Intensif
Visi : 
Plafond : 
>= 8 km
>= 3000ft
5 à 8 km
1000 à 3000 ft
1500m à 5 km
500 à 1000 ft
800 à 1500m
200 à 500 ft
< 800m
< 200 ft
Symboles :   Orages  Brouillard  Fortes neiges  Fortes précipitations  Vent > 20 kt
SIGMETs :   Divers  Orages  Givrage  Turbulence  Onde Orograph.  Cendres Volcan.






- Altitude de l'aérodrome : 50 ft
- Code IATA : KOI


EGPA - Kirkwall

DERNIER METAR :
  • 110020Z AUTO 08002KT 9999 BKN001/// OVC005/// 12/12 Q1022

METARs EXPIRÉS :
  • 102350Z AUTO 10002KT 7000 OVC001/// 12/12 Q1022
  • 102320Z AUTO 11001KT 2900 BR OVC002/// 11/11 Q1023
  • 102250Z AUTO 00000KT 0250 FG VV/// 11/11 Q1023
  • 102220Z AUTO 00000KT 0150 FG VV/// 10/10 Q1023
  • 102150Z AUTO 00000KT 0550 FG SCT001/// 10/10 Q1022

TAF TAF EGPA
Valide du 11 à 00h jusqu'au 11 à 09h UTC


102303Z 1100/1109 VRB04KT 9999 SCT010
TEMPO 1100/1109 4000 BR BKN008
PROB30
TEMPO 1100/1106 0300 FG VV///
BECMG 1106/1109 12010KT



MET'MAP, la Météo Aéronautique d'un coup d'oeil ! - Copyright ORBIFLY Décembre 2007 - Disclaimer

ORBIFLY MET'MAP TEAM :

Programmation & Développement : Alexandra Zaïnal
Sur une idée originale de : Baudouin d'Aumeries
Assistance à la programmation : Marc-Olivier Méhu
Soutien technique & logistique : Manuel Goepfert

Contact : metmap@orbifly.com




SOURCES & CREDITS :

   NOAA